Latest Weather Observations for Point Wilson

IDV60901

Issued at 8:31 pm EDT Monday 17 December 2018 (issued every 10 minutes, with the page automatically refreshed every 10 minutes)

About weather observations | Map of Melbourne area stations | Latest observations for Melbourne area | Other Formats
Station Details ID: 087166 Name: POINT WILSON Lat: -38.10 Lon: 144.54 Height: 18.0 m
Data from the previous 72 hours. | See also: Recent months for locations in Victoria
Date/Time
EDT
Temp
°C
App
Temp
°C
Dew
Point
°C
Rel
Hum
%
Delta-T
°C
Wind Press
QNH
hPa
Press
MSL
hPa
Rain since
9am
mm
Dir  Spd
km/h
Gust
km/h
Spd
kts
Gust
kts
17/08:30pm - - - - - SSW 39 44 21 24 - - -
17/08:00pm - - - - - SSW 41 46 22 25 - - -
17/07:30pm - - - - - SSW 39 44 21 24 - - -
17/07:00pm - - - - - S 35 43 19 23 - - -
17/06:30pm - - - - - S 33 39 18 21 - - -
17/06:00pm - - - - - S 32 37 17 20 - - -
17/05:30pm - - - - - S 32 37 17 20 - - -
17/05:00pm - - - - - SSW 33 37 18 20 - - -
17/04:30pm - - - - - S 30 35 16 19 - - -
17/04:00pm - - - - - S 30 32 16 17 - - -
17/03:30pm - - - - - SSW 32 37 17 20 - - -
17/03:00pm - - - - - SSW 33 39 18 21 - - -
17/02:30pm - - - - - SSW 35 39 19 21 - - -
17/02:00pm - - - - - SSW 28 35 15 19 - - -
17/01:30pm - - - - - SSW 30 33 16 18 - - -
17/01:00pm - - - - - SSW 22 28 12 15 - - -
17/12:30pm - - - - - SSW 20 24 11 13 - - -
17/12:00pm - - - - - S 24 28 13 15 - - -
17/11:30am - - - - - SSW 22 28 12 15 - - -
17/11:00am - - - - - W 15 19 8 10 - - -
17/10:30am - - - - - W 22 28 12 15 - - -
17/10:00am - - - - - W 26 32 14 17 - - -
17/09:30am - - - - - WSW 24 28 13 15 - - -
17/09:00am - - - - - WSW 20 28 11 15 - - -
17/08:30am - - - - - W 24 30 13 16 - - -
17/08:00am - - - - - WSW 24 32 13 17 - - -
17/07:30am - - - - - W 28 33 15 18 - - -
17/07:00am - - - - - WNW 22 28 12 15 - - -
17/06:30am - - - - - WNW 17 24 9 13 - - -
17/06:00am - - - - - W 20 24 11 13 - - -
17/05:30am - - - - - WSW 19 24 10 13 - - -
17/05:00am - - - - - WSW 20 26 11 14 - - -
17/04:30am - - - - - W 22 28 12 15 - - -
17/04:00am - - - - - WSW 13 17 7 9 - - -
17/03:30am - - - - - SW 20 22 11 12 - - -
17/03:00am - - - - - SW 20 22 11 12 - - -
17/02:30am - - - - - W 13 17 7 9 - - -
17/02:00am - - - - - WNW 11 13 6 7 - - -
17/01:30am - - - - - WNW 9 11 5 6 - - -
17/01:00am - - - - - WNW 7 11 4 6 - - -
17/12:30am - - - - - NW 11 13 6 7 - - -
17/12:00am - - - - - NNW 13 17 7 9 - - -
 
Date/Time
EDT
Temp
°C
App
Temp
°C
Dew
Point
°C
Rel
Hum
%
Delta-T
°C
Wind Press
QNH
hPa
Press
MSL
hPa
Rain since
9am
mm
Dir  Spd
km/h
Gust
km/h
Spd
kts
Gust
kts
16/11:30pm - - - - - NNW 13 17 7 9 - - -
16/11:00pm - - - - - CALM 0 0 0 0 - - -
16/10:30pm - - - - - S 4 9 2 5 - - -
16/10:00pm - - - - - SSE 7 9 4 5 - - -
16/09:30pm - - - - - S 11 13 6 7 - - -
16/09:00pm - - - - - S 15 17 8 9 - - -
16/08:30pm - - - - - S 15 17 8 9 - - -
16/08:00pm - - - - - S 17 20 9 11 - - -
16/07:30pm - - - - - S 20 24 11 13 - - -
16/07:00pm - - - - - S 26 32 14 17 - - -
16/06:30pm - - - - - SSW 32 35 17 19 - - -
16/06:00pm - - - - - S 30 35 16 19 - - -
16/05:54pm - - - - - S 26 35 14 19 - - -
16/05:30pm - - - - - ENE 13 17 7 9 - - -
16/05:00pm - - - - - NE 26 28 14 15 - - -
16/04:30pm - - - - - ENE 17 19 9 10 - - -
16/04:00pm - - - - - NE 22 26 12 14 - - -
16/03:30pm - - - - - NE 26 28 14 15 - - -
16/03:00pm - - - - - NNE 19 30 10 16 - - -
16/02:30pm - - - - - NNE 17 22 9 12 - - -
16/02:00pm - - - - - NNE 17 20 9 11 - - -
16/01:30pm - - - - - ENE 13 24 7 13 - - -
16/01:00pm - - - - - SE 15 17 8 9 - - -
16/12:30pm - - - - - E 9 15 5 8 - - -
16/12:00pm - - - - - NNE 9 13 5 7 - - -
16/11:30am - - - - - N 11 15 6 8 - - -
16/11:00am - - - - - NE 13 17 7 9 - - -
16/10:30am - - - - - N 17 20 9 11 - - -
16/10:00am - - - - - NW 9 15 5 8 - - -
16/09:30am - - - - - W 11 15 6 8 - - -
16/09:00am - - - - - W 7 9 4 5 - - -
16/08:30am - - - - - W 9 13 5 7 - - -
16/08:00am - - - - - CALM 0 0 0 0 - - -
16/07:30am - - - - - NNW 6 9 3 5 - - -
16/07:00am - - - - - NNW 13 17 7 9 - - -
16/06:30am - - - - - NNW 9 11 5 6 - - -
16/06:00am - - - - - N 17 20 9 11 - - -
16/05:30am - - - - - NNE 24 28 13 15 - - -
16/05:00am - - - - - NNE 28 33 15 18 - - -
16/04:30am - - - - - N 19 24 10 13 - - -
16/04:00am - - - - - NNE 24 28 13 15 - - -
16/03:30am - - - - - NNE 26 30 14 16 - - -
16/03:00am - - - - - NNE 24 32 13 17 - - -
16/02:43am - - - - - NNE 30 33 16 18 - - -
16/02:30am - - - - - NE 37 48 20 26 - - -
16/02:23am - - - - - NNE 35 48 19 26 - - -
16/02:00am - - - - - NNE 24 30 13 16 - - -
16/01:30am - - - - - N 13 17 7 9 - - -
16/01:00am - - - - - N 19 22 10 12 - - -
16/12:30am - - - - - N 28 32 15 17 - - -
16/12:00am - - - - - NNE 26 30 14 16 - - -
 
Date/Time
EDT
Temp
°C
App
Temp
°C
Dew
Point
°C
Rel
Hum
%
Delta-T
°C
Wind Press
QNH
hPa
Press
MSL
hPa
Rain since
9am
mm
Dir  Spd
km/h
Gust
km/h
Spd
kts
Gust
kts
15/11:30pm - - - - - N 24 26 13 14 - - -
15/11:00pm - - - - - NNE 24 28 13 15 - - -
15/10:30pm - - - - - N 19 22 10 12 - - -
15/10:00pm - - - - - NNE 19 20 10 11 - - -
15/09:30pm - - - - - NNE 19 20 10 11 - - -
15/09:00pm - - - - - NNE 24 28 13 15 - - -
15/08:30pm - - - - - NNE 28 32 15 17 - - -
15/08:00pm - - - - - NNE 33 41 18 22 - - -
15/07:30pm - - - - - NE 30 33 16 18 - - -
15/07:00pm - - - - - NNE 33 41 18 22 - - -
15/06:30pm - - - - - NNE 35 41 19 22 - - -
15/06:23pm - - - - - NNE 33 41 18 22 - - -
15/06:00pm - - - - - E 19 20 10 11 - - -
15/05:30pm - - - - - E 19 22 10 12 - - -
15/05:00pm - - - - - ESE 17 19 9 10 - - -
15/04:30pm - - - - - ENE 15 17 8 9 - - -
15/04:00pm - - - - - NE 24 30 13 16 - - -
15/03:30pm - - - - - NNE 26 30 14 16 - - -
15/03:00pm - - - - - N 43 48 23 26 - - -
15/02:34pm - - - - - NNE 26 61 14 33 - - -
15/02:30pm - - - - - NNE 19 24 10 13 - - -
15/02:00pm - - - - - NE 9 11 5 6 - - -
15/01:30pm - - - - - ESE 9 11 5 6 - - -
15/01:00pm - - - - - ESE 2 9 1 5 - - -
15/12:30pm - - - - - CALM 0 6 0 3 - - -
15/12:00pm - - - - - NNE 11 13 6 7 - - -
15/11:30am - - - - - CALM 0 0 0 0 - - -
15/11:00am - - - - - CALM 0 4 0 2 - - -
15/10:30am - - - - - ENE 13 17 7 9 - - -
15/10:00am - - - - - ENE 17 22 9 12 - - -
15/09:30am - - - - - ESE 13 17 7 9 - - -
15/09:00am - - - - - SE 17 20 9 11 - - -
15/08:30am - - - - - SE 13 17 7 9 - - -
15/08:00am - - - - - SSE 17 19 9 10 - - -
15/07:30am - - - - - ESE 22 26 12 14 - - -
15/07:00am - - - - - SE 20 26 11 14 - - -
15/06:30am - - - - - SE 24 30 13 16 - - -
15/06:00am - - - - - SSE 24 28 13 15 - - -
15/05:30am - - - - - SSE 19 20 10 11 - - -
15/05:00am - - - - - ESE 32 52 17 28 - - -
15/04:55am - - - - - ENE 28 52 15 28 - - -
15/04:53am - - - - - E 28 52 15 28 - - -
15/04:51am - - - - - ESE 24 50 13 27 - - -
15/04:30am - - - - - SE 20 24 11 13 - - -
15/04:00am - - - - - SE 20 26 11 14 - - -
15/03:30am - - - - - SE 15 17 8 9 - - -
15/03:00am - - - - - ESE 15 17 8 9 - - -
15/02:30am - - - - - SE 17 22 9 12 - - -
15/02:00am - - - - - ESE 13 13 7 7 - - -
15/01:30am - - - - - E 13 13 7 7 - - -
15/01:00am - - - - - E 13 20 7 11 - - -
15/12:30am - - - - - SE 9 17 5 9 - - -
15/12:00am - - - - - SE 17 30 9 16 - - -
 
Date/Time
EDT
Temp
°C
App
Temp
°C
Dew
Point
°C
Rel
Hum
%
Delta-T
°C
Wind Press
QNH
hPa
Press
MSL
hPa
Rain since
9am
mm
Dir  Spd
km/h
Gust
km/h
Spd
kts
Gust
kts
14/11:30pm - - - - - ESE 15 20 8 11 - - -
14/11:00pm - - - - - ESE 17 20 9 11 - - -
14/10:30pm - - - - - SE 19 24 10 13 - - -
14/10:00pm - - - - - SE 24 28 13 15 - - -
14/09:30pm - - - - - SE 24 28 13 15 - - -
14/09:00pm - - - - - SE 28 32 15 17 - - -

Latest Capital City Observations: Canberra | Sydney | Melbourne | Brisbane | Adelaide | Perth | Hobart | Darwin

Other Formats:

Comma delimited format used in spreadsheet applications
http://www.bom.gov.au/fwo/IDV60901/IDV60901.94847.axf

JavaScript Object Notation format (JSON) in row-major order
http://www.bom.gov.au/fwo/IDV60901/IDV60901.94847.json